Currently 52°F in Lake Elsinore, California, USA
52°F
52°F / 46°F
17 mph SW
1.57"
Friday, January 20, 2017 1:58 PM PST

Lake Elsinore, California Weather Summary
Last 36 Hours

Temperature Winds Hourly Humidity Dewpoint
Time Report Norm Report Norm Max Gusts Precip. Rpt. Norm Rpt. Norm Pressure
1Fri 01:58 PM  51.7°F  68°F  17 mph SW  3 mph  41 mph  0.69"  100%  39%  52°F  41°F  29.50"
2Fri 01:55 PM  51.8°F  68°F  8 mph SW  3 mph  41 mph  ----  100%  39%  52°F  41°F  29.50"
Fri 01:00 PM  49.6°F  68°F  6 mph SE  3 mph  21 mph  0.24"  100%  39%  50°F  41°F  29.49"
Fri 12:00 PM  48.4°F  66°F  1 mph N  3 mph  26 mph  0.20"  100%  43%  48°F  42°F  29.59"
Fri 11:00 AM  49.0°F  64°F  8 mph S  2 mph  21 mph  0.08"  100%  48%  49°F  43°F  29.66"
Fri 10:00 AM  49.2°F  59°F  3 mph SE  2 mph  15 mph  0.11"  100%  57%  49°F  44°F  29.74"
Fri 09:00 AM  48.4°F  55°F  7 mph S  1 mph  17 mph  0.06"  100%  68%  48°F  44°F  29.76"
Fri 08:00 AM  47.6°F  47°F  calm  1 mph  none  0.08"  100%  78%  48°F  41°F  29.78"
Fri 07:00 AM  46.6°F  43°F  calm  calm  none  0.03"  100%  80%  47°F  37°F  29.80"
3Fri 06:17 AM  46.5°F  43°F  calm  1 mph  none  ----  100%  80%  46°F  37°F  29.82"
Fri 06:00 AM  46.8°F  44°F  calm  1 mph  none  0.02"  100%  79%  47°F  37°F  29.82"
Fri 05:00 AM  48.2°F  44°F  calm  1 mph  none  0.02"  100%  78%  48°F  37°F  29.81"
Fri 04:00 AM  48.5°F  44°F  calm  1 mph  none  0.01"  100%  77%  49°F  37°F  29.83"
Fri 03:00 AM  48.4°F  45°F  calm  1 mph  none  0.02"  100%  76%  48°F  37°F  29.85"
Fri 02:00 AM  47.8°F  46°F  calm  calm  none  0.00"  100%  74%  48°F  38°F  29.88"
Fri 01:00 AM  48.2°F  47°F  calm  1 mph  10 mph  0.01"  100%  72%  48°F  38°F  29.89"
Fri 12:00 AM  48.7°F  48°F  calm  1 mph  11 mph  0.01"  100%  71%  49°F  38°F  29.89"
Thu 11:00 PM  48.2°F  48°F  4 mph SW  1 mph  11 mph  0.01"  99%  69%  48°F  38°F  29.92"
Thu 10:00 PM  48.6°F  50°F  calm  1 mph  none  0.01"  99%  66%  48°F  38°F  29.93"
Thu 09:00 PM  49.1°F  51°F  calm  1 mph  none  0.02"  99%  63%  49°F  39°F  29.94"
Thu 08:00 PM  49.5°F  53°F  calm  1 mph  10 mph  0.02"  97%  59%  49°F  39°F  29.95"
Thu 07:00 PM  50.0°F  56°F  6 mph SW  1 mph  11 mph  0.01"  95%  56%  48°F  40°F  29.94"
Thu 06:00 PM  51.6°F  58°F  3 mph S  2 mph  17 mph  0.00"  89%  52%  48°F  40°F  29.96"
Thu 05:00 PM  52.7°F  62°F  3 mph S  2 mph  18 mph  0.00"  80%  46%  47°F  40°F  29.94"
Thu 04:00 PM  53.9°F  67°F  3 mph S  3 mph  20 mph  0.00"  79%  40%  47°F  40°F  29.93"
Thu 03:00 PM  55.8°F  68°F  5 mph SW  3 mph  13 mph  0.00"  77%  37%  48°F  40°F  29.93"
Thu 02:00 PM  57.7°F  68°F  6 mph S  3 mph  18 mph  0.00"  73%  37%  49°F  40°F  29.94"
Thu 01:00 PM  59.3°F  68°F  8 mph SW  3 mph  16 mph  0.00"  71%  38%  49°F  40°F  29.95"
Thu 12:00 PM  59.5°F  66°F  3 mph E  3 mph  15 mph  0.00"  73%  41%  51°F  41°F  29.96"
Thu 11:00 AM  57.5°F  63°F  8 mph SW  2 mph  20 mph  0.00"  81%  46%  51°F  42°F  29.97"
Thu 10:00 AM  55.5°F  59°F  6 mph W  2 mph  17 mph  0.00"  98%  55%  55°F  43°F  29.99"
Thu 09:00 AM  53.6°F  55°F  8 mph SW  2 mph  27 mph  0.07"  100%  66%  54°F  43°F  29.96"
Thu 08:00 AM  52.0°F  47°F  7 mph SW  1 mph  24 mph  0.09"  100%  77%  52°F  40°F  29.95"
Thu 07:00 AM  49.4°F  43°F  calm  1 mph  11 mph  0.36"  100%  79%  49°F  37°F  29.95"
Thu 06:00 AM  49.2°F  43°F  3 mph E  1 mph  11 mph  0.19"  100%  78%  49°F  37°F  29.96"
Thu 05:00 AM  48.9°F  44°F  calm  1 mph  10 mph  0.20"  100%  77%  49°F  37°F  29.98"
Thu 04:00 AM  48.3°F  44°F  5 mph E  1 mph  11 mph  0.06"  97%  77%  47°F  37°F  30.03"
Thu 03:00 AM  48.3°F  44°F  3 mph SW  calm  11 mph  0.00"  95%  75%  47°F  37°F  30.06"
Thu 02:00 AM  47.0°F  45°F  1 mph SE  calm  6 mph  0.00"  98%  74%  47°F  37°F  30.06"

  1. Current weather data. No green row appears if the current weather data is also the high or low for the current day.
  2. High temperature for the current day.
  3. Low temperature for the current day.

The Lake Elsinore, California weather pages are a service of WeatherCurrents. Lake Elsinore is located south of Corona and north of the Temecula Valley, in southwestern Riverside County, California.
Copyright ©Fri Jan 20 13:58:18 PST 2017  WeatherCurrents. All rights reserved. - Submit questions and comments - Privacy Policy

This page automatically refreshes every 10 minutes.